La Grange Park, Illinois
Current Conditions -  °F | °C
As of 9:53 PM on Friday 24 Oct 2014 (Local Time) from KMDW Reporting Station
Overcast Overcast  
Wind Chill: 62°   Ceiling: 6000
Heat Index: 62°   Visibility: 10mi
Dew Point: 47°   Wind: 8mph
Humidity: 58%   Direction: 220°SW
Pressure: 29.94"   Gusts: NA
Location:  41.82°N, 87.87°W
Report Text: KMDW 250253Z 22007KT 10SM SCT045 BKN060 OVC100 17/08 A2994 RMK AO2 SLP136 T01670083 58005
Loading
Personal Weather Stations






























Interactive Weather Map
Tropical Storm Tracking
New forecast layout! Learn more

10-Day Weather Forecast

Advertisements
Track Severe Weather on mobile